Time;durP1;ratioP1;P1;durP2;ratioP2;P2;SDS_P1;SDS_P2;PMS_P1;PMS_P2;Temp;Humidity;BMP_temperature;BMP_pressure;BME280_temperature;BME280_humidity;BME280_pressure;Samples;Min_cycle;Max_cycle;Signal;HPM_P1;HPM_P2
2022/12/24 00:01:35;;;;;;;0.10;0.10;;;10.10;99.90;8.70;94341.00;;;;5086190;28;20223;-72
2022/12/24 00:04:03;;;;;;;0.10;0.10;;;10.20;99.90;8.60;94511.00;;;;5077651;28;20202;-73
2022/12/24 00:06:31;;;;;;;0.10;0.10;;;10.20;99.90;8.70;94405.00;;;;5086670;28;20196;-72
2022/12/24 00:08:59;;;;;;;0.10;0.10;;;10.20;99.90;8.60;94349.00;;;;5077482;28;20218;-72
2022/12/24 00:11:27;;;;;;;0.10;0.10;;;10.10;99.90;8.60;94427.00;;;;5083195;28;20194;-72
2022/12/24 00:13:57;;;;;;;0.10;0.10;;;10.10;99.90;8.60;94359.00;;;;5074027;28;20213;-72
2022/12/24 00:16:24;;;;;;;0.00;0.00;;;10.10;99.90;8.60;94285.00;;;;5079383;28;20193;-72
2022/12/24 00:18:53;;;;;;;0.10;0.10;;;10.10;99.90;8.60;94330.00;;;;5072611;28;20244;-72
2022/12/24 00:21:21;;;;;;;0.10;0.10;;;10.10;99.90;8.60;94354.00;;;;5081096;28;20197;-72
2022/12/24 00:23:49;;;;;;;0.10;0.10;;;10.10;99.90;8.60;94295.00;;;;5085942;28;20189;-72
2022/12/24 00:26:17;;;;;;;0.10;0.10;;;10.10;99.90;8.60;94278.00;;;;5077973;28;20200;-72
2022/12/24 00:28:44;;;;;;;0.10;0.10;;;10.10;99.90;8.60;94335.00;;;;5086467;28;20641;-72
2022/12/24 00:31:17;;;;;;;0.10;0.10;;;10.10;99.90;8.60;94352.00;;;;5081893;28;20210;-72
2022/12/24 00:33:46;;;;;;;0.10;0.10;;;10.10;99.90;8.60;94471.00;;;;5078383;28;20202;-72
2022/12/24 00:36:15;;;;;;;0.10;0.10;;;10.10;99.90;8.50;94421.00;;;;5082381;28;20224;-72
2022/12/24 00:38:44;;;;;;;0.10;0.10;;;10.10;99.90;8.50;94439.00;;;;5081972;28;20624;-72
2022/12/24 00:41:23;;;;;;;0.10;0.10;;;10.00;99.90;8.60;94319.00;;;;5081853;28;20247;-72
2022/12/24 00:43:53;;;;;;;0.10;0.10;;;10.10;99.90;8.60;94518.00;;;;5072367;28;20189;-72
2022/12/24 00:46:24;;;;;;;0.10;0.10;;;10.10;99.90;8.50;94440.00;;;;5078295;28;20227;-71
2022/12/24 00:48:53;;;;;;;0.10;0.10;;;10.10;99.90;8.50;94396.00;;;;5082300;28;20218;-72
2022/12/24 00:51:22;;;;;;;0.10;0.10;;;10.10;99.90;8.60;94712.00;;;;5085382;28;20535;-72
2022/12/24 00:53:52;;;;;;;0.10;0.10;;;10.10;99.90;8.50;94433.00;;;;5084055;28;20197;-72
2022/12/24 00:56:20;;;;;;;0.10;0.10;;;10.00;99.90;8.50;94451.00;;;;5071851;28;20231;-72
2022/12/24 00:58:49;;;;;;;0.10;0.10;;;10.00;99.90;8.50;94339.00;;;;5085058;28;20286;-72
2022/12/24 01:01:17;;;;;;;0.10;0.10;;;10.00;99.90;8.50;94350.00;;;;5071603;28;20205;-72
2022/12/24 01:03:47;;;;;;;0.10;0.10;;;10.00;99.90;8.50;94445.00;;;;5083973;28;20193;-72
2022/12/24 01:06:18;;;;;;;0.10;0.10;;;10.00;99.90;8.40;94536.00;;;;5080537;28;20197;-72
2022/12/24 01:08:46;;;;;;;0.10;0.10;;;10.00;99.90;8.50;94460.00;;;;5084523;28;20217;-72
2022/12/24 01:11:14;;;;;;;0.05;0.05;;;10.00;99.90;8.50;94403.00;;;;5083455;28;20201;-72
2022/12/24 01:13:42;;;;;;;0.10;0.10;;;10.00;99.90;8.40;94309.00;;;;5073332;28;20264;-71
2022/12/24 01:16:20;;;;;;;0.10;0.10;;;9.90;99.90;8.40;94319.00;;;;5081004;28;20722;-72
2022/12/24 01:18:50;;;;;;;0.10;0.10;;;9.90;99.90;8.40;94344.00;;;;5076050;28;20228;-72
2022/12/24 01:21:18;;;;;;;0.10;0.10;;;9.90;99.90;8.40;94481.00;;;;5074898;28;20197;-72
2022/12/24 01:23:46;;;;;;;0.10;0.10;;;9.90;99.90;8.40;94375.00;;;;5091273;28;20201;-72
2022/12/24 01:26:14;;;;;;;0.10;0.10;;;9.80;99.90;8.40;94476.00;;;;5080006;28;20680;-72
2022/12/24 01:28:42;;;;;;;0.10;0.10;;;9.90;99.90;8.90;92695.00;;;;5084399;28;20561;-71
2022/12/24 01:31:12;;;;;;;0.10;0.10;;;9.80;99.90;8.30;94307.00;;;;5083768;28;20202;-72
2022/12/24 01:33:41;;;;;;;0.10;0.10;;;9.80;99.90;8.40;94248.00;;;;5081622;28;20271;-72
2022/12/24 01:36:12;;;;;;;0.10;0.10;;;9.80;99.90;8.40;94221.00;;;;5088531;28;20201;-72
2022/12/24 01:38:40;;;;;;;0.00;0.00;;;9.90;99.90;8.40;94180.00;;;;5081013;28;20552;-72
2022/12/24 01:44:18;;;;;;;0.10;0.10;;;9.80;99.90;8.40;94389.00;;;;5071356;28;20202;-71
2022/12/24 01:46:46;;;;;;;0.10;0.10;;;9.80;99.90;7.80;94370.00;;;;5079571;28;20197;-72
2022/12/24 01:49:17;;;;;;;0.00;0.00;;;9.80;99.90;8.30;94261.00;;;;5079660;28;20621;-72
2022/12/24 01:51:51;;;;;;;0.00;0.00;;;9.80;99.90;8.30;94257.00;;;;5082423;28;20212;-72
2022/12/24 01:54:25;;;;;;;0.10;0.10;;;9.80;99.90;8.30;94347.00;;;;5073053;28;20249;-72
2022/12/24 01:56:59;;;;;;;0.00;0.00;;;9.80;99.90;8.30;94307.00;;;;5083134;28;20451;-72
2022/12/24 01:59:29;;;;;;;0.10;0.10;;;9.80;99.90;8.30;94458.00;;;;5076640;28;20217;-72
2022/12/24 02:01:57;;;;;;;0.10;0.10;;;9.80;99.90;8.30;94288.00;;;;5074781;28;20190;-72
2022/12/24 02:04:33;;;;;;;0.10;0.10;;;9.80;99.90;8.30;94299.00;;;;5082999;28;20193;-72
2022/12/24 02:07:03;;;;;;;0.10;0.10;;;9.80;99.90;8.30;94236.00;;;;5075009;28;20260;-72
2022/12/24 02:09:35;;;;;;;0.10;0.10;;;9.80;99.90;8.30;94268.00;;;;5084788;28;20217;-72
2022/12/24 02:12:06;;;;;;;0.00;0.00;;;9.80;99.90;8.30;94335.00;;;;5073882;28;20259;-72
2022/12/24 02:14:34;;;;;;;0.10;0.10;;;9.80;99.90;8.20;94484.00;;;;5066126;28;20182;-72
2022/12/24 02:17:17;;;;;;;0.10;0.10;;;9.70;99.90;8.20;94594.00;;;;5085604;28;20197;-72
2022/12/24 02:20:30;;;;;;;0.10;0.10;;;9.80;99.90;8.20;94435.00;;;;5080095;28;20206;-72
2022/12/24 02:23:27;;;;;;;0.10;0.10;;;9.70;99.90;8.20;94394.00;;;;5070602;28;20214;-72
2022/12/24 02:26:18;;;;;;;0.10;0.10;;;9.70;99.90;8.30;94331.00;;;;5082086;28;20209;-72
2022/12/24 02:29:27;;;;;;;0.10;0.10;;;9.80;99.90;8.20;94410.00;;;;5080078;28;20275;-71
2022/12/24 02:32:02;;;;;;;0.10;0.10;;;9.70;99.90;8.20;94472.00;;;;5077715;28;20205;-72
2022/12/24 02:34:38;;;;;;;0.00;0.00;;;9.70;99.90;8.10;94609.00;;;;5080158;28;20208;-71
2022/12/24 02:37:12;;;;;;;0.10;0.10;;;9.60;99.90;8.10;94401.00;;;;5080001;28;20189;-72
2022/12/24 02:39:47;;;;;;;0.10;0.10;;;9.60;99.90;8.10;94429.00;;;;5066854;28;20217;-71
2022/12/24 02:42:22;;;;;;;0.10;0.10;;;9.60;99.90;8.00;94451.00;;;;5077431;28;20204;-72
2022/12/24 02:44:55;;;;;;;0.03;0.03;;;9.60;99.90;8.00;94652.00;;;;5066759;28;20193;-71
2022/12/24 02:47:28;;;;;;;0.00;0.00;;;9.50;99.90;8.00;94436.00;;;;5071776;28;20201;-71
2022/12/24 02:50:01;;;;;;;0.00;0.00;;;9.50;99.90;8.00;94412.00;;;;5075417;28;20223;-71
2022/12/24 02:52:32;;;;;;;0.03;0.03;;;9.50;99.90;8.00;94535.00;;;;5087996;28;20254;-71
2022/12/24 02:55:07;;;;;;;0.10;0.10;;;9.50;99.90;8.00;94626.00;;;;5086281;28;20227;-71
2022/12/24 02:57:54;;;;;;;0.10;0.10;;;9.50;99.90;8.00;94457.00;;;;5086001;28;20200;-72
2022/12/24 03:00:24;;;;;;;0.10;0.10;;;9.50;99.90;8.00;94619.00;;;;5082717;28;20224;-72
2022/12/24 03:03:15;;;;;;;0.10;0.10;;;9.50;99.90;7.90;94462.00;;;;5074559;28;20194;-72
2022/12/24 03:05:49;;;;;;;0.10;0.10;;;9.50;99.90;7.90;94528.00;;;;5075828;28;20194;-72
2022/12/24 03:08:38;;;;;;;0.10;0.10;;;9.40;99.90;7.90;94464.00;;;;5071932;28;20200;-72
2022/12/24 03:11:11;;;;;;;0.10;0.10;;;9.40;99.90;7.90;94426.00;;;;5079703;28;20229;-71
2022/12/24 03:13:40;;;;;;;0.00;0.00;;;9.40;99.90;7.90;94465.00;;;;5071205;28;20208;-72
2022/12/24 03:16:12;;;;;;;0.10;0.10;;;9.40;99.90;7.90;94463.00;;;;5075954;28;20251;-72
2022/12/24 03:18:46;;;;;;;0.00;0.00;;;9.40;99.90;7.90;94490.00;;;;5084114;28;20311;-71
2022/12/24 03:21:22;;;;;;;0.10;0.10;;;9.40;99.90;7.90;94510.00;;;;5074125;28;20220;-72
2022/12/24 03:23:50;;;;;;;0.10;0.10;;;9.40;99.90;7.90;94499.00;;;;5078798;28;20197;-72
2022/12/24 03:26:20;;;;;;;0.10;0.10;;;9.40;99.90;7.50;94510.00;;;;5069393;28;20193;-71
2022/12/24 03:28:49;;;;;;;0.00;0.00;;;9.40;99.90;7.90;94478.00;;;;5076111;28;20564;-72
2022/12/24 03:31:18;;;;;;;0.10;0.10;;;9.40;99.90;7.90;94455.00;;;;5070448;28;20670;-71
2022/12/24 03:33:48;;;;;;;0.10;0.10;;;9.40;99.90;7.50;94523.00;;;;5075112;28;20197;-72
2022/12/24 03:36:17;;;;;;;0.10;0.10;;;9.40;99.90;7.80;94400.00;;;;5081130;28;20724;-71
2022/12/24 03:38:45;;;;;;;0.10;0.10;;;9.40;99.90;7.90;94302.00;;;;5074979;28;20283;-71
2022/12/24 03:41:13;;;;;;;0.10;0.10;;;9.40;99.90;7.80;94432.00;;;;5074220;28;20213;-72
2022/12/24 03:43:41;;;;;;;0.08;0.08;;;9.40;99.90;7.80;94480.00;;;;5070929;28;20531;-71
2022/12/24 03:46:09;;;;;;;0.10;0.10;;;9.30;99.90;7.80;94412.00;;;;5079214;28;20205;-73
2022/12/24 03:48:37;;;;;;;0.00;0.00;;;9.30;99.90;7.80;94388.00;;;;5083091;28;20193;-71
2022/12/24 03:51:18;;;;;;;0.10;0.10;;;9.30;99.90;7.70;94304.00;;;;5080744;28;20201;-71
2022/12/24 03:53:46;;;;;;;0.10;0.10;;;9.30;99.90;7.70;94438.00;;;;5078811;28;20259;-71
2022/12/24 03:56:15;;;;;;;0.10;0.10;;;9.20;99.90;7.60;94595.00;;;;5086329;28;20220;-72
2022/12/24 03:58:43;;;;;;;0.10;0.10;;;9.20;99.90;7.60;94565.00;;;;5091303;28;20223;-71
2022/12/24 04:01:11;;;;;;;0.10;0.10;;;9.10;99.90;7.50;94557.00;;;;5080259;28;20257;-71
2022/12/24 04:03:39;;;;;;;0.10;0.10;;;9.10;99.90;7.50;94741.00;;;;5084454;28;20194;-71
2022/12/24 04:06:11;;;;;;;0.10;0.10;;;9.00;99.90;7.50;94481.00;;;;5079505;28;20250;-74
2022/12/24 04:08:40;;;;;;;0.10;0.10;;;9.00;99.90;7.40;94501.00;;;;5079127;28;20565;-72
2022/12/24 04:11:11;;;;;;;0.10;0.10;;;9.00;99.90;7.40;94471.00;;;;5086685;28;20201;-71
2022/12/24 04:13:39;;;;;;;0.10;0.10;;;8.90;99.90;7.40;94451.00;;;;5068831;28;20221;-71
2022/12/24 04:16:11;;;;;;;0.10;0.10;;;8.90;99.90;7.30;94471.00;;;;5079351;28;20873;-71
2022/12/24 04:18:41;;;;;;;0.00;0.00;;;8.90;99.90;7.40;94532.00;;;;5078656;28;20217;-72
2022/12/24 04:21:11;;;;;;;0.00;0.00;;;8.90;99.90;7.30;94529.00;;;;5070774;28;20251;-72
2022/12/24 04:23:41;;;;;;;0.10;0.10;;;8.90;99.90;7.30;94529.00;;;;5079822;28;20648;-72
2022/12/24 04:26:12;;;;;;;0.10;0.10;;;8.80;99.90;7.30;94510.00;;;;5077651;28;20201;-72
2022/12/24 04:28:42;;;;;;;0.10;0.10;;;8.80;99.90;7.20;94541.00;;;;5085504;28;20205;-71
2022/12/24 04:31:13;;;;;;;0.10;0.10;;;8.70;99.90;7.20;94561.00;;;;5085115;28;20668;-72
2022/12/24 04:33:41;;;;;;;0.10;0.10;;;8.70;99.90;7.10;94493.00;;;;5085329;28;20197;-71
2022/12/24 04:36:15;;;;;;;0.10;0.10;;;8.60;99.90;7.10;94573.00;;;;5074891;28;20202;-72
2022/12/24 04:38:44;;;;;;;0.10;0.10;;;8.60;99.90;7.00;94573.00;;;;5085323;28;20275;-72
2022/12/24 04:41:15;;;;;;;0.05;0.05;;;8.50;99.90;7.00;94628.00;;;;5081656;28;20580;-72
2022/12/24 04:43:52;;;;;;;0.10;0.10;;;8.50;99.90;7.00;94598.00;;;;5073849;28;20556;-71
2022/12/24 04:46:23;;;;;;;0.10;0.10;;;8.60;99.90;7.10;94423.00;;;;5084322;28;20186;-71
2022/12/24 04:48:54;;;;;;;0.10;0.10;;;8.60;99.90;7.10;94409.00;;;;5088090;28;20216;-72
2022/12/24 04:51:26;;;;;;;0.00;0.00;;;8.60;99.90;7.00;94449.00;;;;5074475;28;20206;-72
2022/12/24 04:53:55;;;;;;;0.10;0.10;;;8.60;99.90;7.00;94421.00;;;;5082474;28;20197;-72
2022/12/24 04:56:25;;;;;;;0.10;0.10;;;8.50;99.90;7.00;94386.00;;;;5082485;28;20235;-72
2022/12/24 04:58:54;;;;;;;0.00;0.00;;;8.50;99.90;7.00;94382.00;;;;5082126;28;20221;-72
2022/12/24 05:01:26;;;;;;;0.10;0.10;;;8.50;99.90;7.00;94360.00;;;;5081596;28;20548;-72
2022/12/24 05:03:55;;;;;;;0.03;0.03;;;8.50;99.90;7.00;94314.00;;;;5082105;28;20923;-72
2022/12/24 05:06:29;;;;;;;0.00;0.00;;;8.50;99.90;6.90;94632.00;;;;5081894;28;20201;-72
2022/12/24 05:08:59;;;;;;;0.10;0.10;;;8.50;99.90;7.00;94301.00;;;;5081458;28;20243;-72
2022/12/24 05:11:27;;;;;;;0.05;0.05;;;8.50;99.90;7.00;94517.00;;;;5081405;28;20255;-72
2022/12/24 05:13:56;;;;;;;0.10;0.10;;;8.50;99.90;7.00;94681.00;;;;5073097;28;20248;-72
2022/12/24 05:16:24;;;;;;;0.10;0.10;;;8.50;99.90;7.00;94582.00;;;;5081571;28;20722;-71
2022/12/24 05:18:55;;;;;;;0.03;0.03;;;8.50;99.90;7.10;94768.00;;;;5078451;28;20245;-71
2022/12/24 05:21:25;;;;;;;0.10;0.10;;;8.60;99.90;7.20;94545.00;;;;5084845;28;20696;-71
2022/12/24 05:26:44;;;;;;;0.10;0.10;;;8.70;99.90;7.20;94638.00;;;;5076641;28;20729;-71
2022/12/24 05:29:13;;;;;;;0.10;0.10;;;8.70;99.90;7.20;94519.00;;;;5077049;28;20206;-71
2022/12/24 05:31:42;;;;;;;0.10;0.10;;;8.80;99.90;7.30;94702.00;;;;5080955;28;20189;-73
2022/12/24 05:34:12;;;;;;;0.10;0.10;;;8.80;99.90;7.30;94658.00;;;;5073910;28;20572;-73
2022/12/24 05:36:42;;;;;;;0.10;0.10;;;8.90;99.90;7.30;94731.00;;;;5079205;28;20190;-73
2022/12/24 05:39:14;;;;;;;0.10;0.10;;;8.90;99.90;7.40;94604.00;;;;5078405;28;20217;-73
2022/12/24 05:41:44;;;;;;;0.10;0.10;;;8.90;99.90;7.40;94519.00;;;;5072018;28;20213;-73
2022/12/24 05:44:13;;;;;;;0.10;0.10;;;8.90;99.90;7.40;94638.00;;;;5072464;28;20201;-73
2022/12/24 05:46:41;;;;;;;0.10;0.10;;;8.90;99.90;7.40;94642.00;;;;5072203;28;20251;-73
2022/12/24 05:49:09;;;;;;;0.10;0.10;;;9.00;99.90;7.50;94592.00;;;;5086864;28;20213;-73
2022/12/24 05:51:39;;;;;;;0.10;0.10;;;9.00;99.90;7.50;94614.00;;;;5065206;28;20259;-73
2022/12/24 05:54:08;;;;;;;0.10;0.10;;;9.00;99.90;7.50;94635.00;;;;5080854;28;20201;-73
2022/12/24 05:56:36;;;;;;;0.05;0.05;;;9.00;99.90;7.50;94355.00;;;;5072466;28;20193;-73
2022/12/24 05:59:04;;;;;;;0.10;0.10;;;9.00;99.90;7.50;94365.00;;;;5085965;28;20224;-73
2022/12/24 06:01:32;;;;;;;0.10;0.10;;;9.10;99.90;7.60;94559.00;;;;5077252;28;20213;-71
2022/12/24 06:04:00;;;;;;;0.00;0.00;;;9.10;99.90;7.60;94673.00;;;;5075660;28;20441;-71
2022/12/24 06:06:29;;;;;;;0.10;0.10;;;9.10;99.90;7.60;94760.00;;;;5084888;28;20277;-71
2022/12/24 06:08:57;;;;;;;0.10;0.10;;;9.10;99.90;7.50;94833.00;;;;5073099;28;20214;-71
2022/12/24 06:11:29;;;;;;;0.10;0.10;;;9.10;99.90;7.60;94604.00;;;;5076470;28;20257;-71
2022/12/24 06:13:57;;;;;;;0.10;0.10;;;9.10;99.90;7.50;94602.00;;;;5072152;28;20206;-71
2022/12/24 06:16:26;;;;;;;0.10;0.10;;;9.10;99.90;7.60;94695.00;;;;5077389;28;20687;-73
2022/12/24 06:18:54;;;;;;;0.10;0.10;;;9.10;99.90;7.60;94672.00;;;;5076238;28;20224;-73
2022/12/24 06:21:23;;;;;;;0.10;0.10;;;9.00;99.90;7.50;94721.00;;;;5087719;28;20304;-73
2022/12/24 06:23:51;;;;;;;0.10;0.10;;;9.10;99.90;7.60;94645.00;;;;5080067;28;20205;-73
2022/12/24 06:26:22;;;;;;;0.10;0.10;;;9.10;99.90;7.60;94667.00;;;;5068686;28;20273;-73
2022/12/24 06:28:52;;;;;;;0.10;0.10;;;9.10;99.90;7.60;94692.00;;;;5081963;28;20232;-73
2022/12/24 06:31:23;;;;;;;0.10;0.10;;;9.10;99.90;7.10;94654.00;;;;5077418;28;20258;-73
2022/12/24 06:33:52;;;;;;;0.10;0.10;;;9.10;99.90;7.60;94730.00;;;;5083310;28;20620;-73
2022/12/24 06:36:24;;;;;;;0.10;0.10;;;9.10;99.90;7.60;94711.00;;;;5082059;28;20193;-73
2022/12/24 06:38:54;;;;;;;0.10;0.10;;;9.10;99.90;7.50;94549.00;;;;5083273;28;20643;-73
2022/12/24 06:41:22;;;;;;;0.10;0.10;;;9.10;99.90;7.60;94558.00;;;;5079914;28;20246;-73
2022/12/24 06:43:53;;;;;;;0.10;0.10;;;9.10;99.90;7.50;94659.00;;;;5071312;28;20197;-73
2022/12/24 06:46:22;;;;;;;0.08;0.08;;;9.00;99.90;7.40;94620.00;;;;5073372;28;20197;-73
2022/12/24 06:48:50;;;;;;;0.00;0.00;;;9.00;99.90;7.40;94564.00;;;;5083207;28;20227;-73
2022/12/24 06:51:19;;;;;;;0.10;0.10;;;9.00;99.90;7.30;94668.00;;;;5077437;28;20633;-73
2022/12/24 06:53:49;;;;;;;0.00;0.00;;;8.90;99.90;7.30;94577.00;;;;5079282;28;20664;-73
2022/12/24 06:56:18;;;;;;;0.10;0.10;;;8.90;99.90;7.30;94681.00;;;;5076221;28;20209;-73
2022/12/24 06:58:47;;;;;;;0.10;0.10;;;8.80;99.90;7.20;94401.00;;;;5079696;28;20633;-74
2022/12/24 07:01:19;;;;;;;0.10;0.10;;;8.80;99.90;7.20;94597.00;;;;5087246;28;20201;-73
2022/12/24 07:03:48;;;;;;;0.10;0.10;;;8.80;99.90;7.20;94566.00;;;;5086871;28;20203;-73
2022/12/24 07:06:23;;;;;;;0.10;0.10;;;8.70;99.90;7.20;94320.00;;;;5081520;28;20193;-73
2022/12/24 07:08:51;;;;;;;0.10;0.10;;;8.70;99.90;7.10;94728.00;;;;5082623;28;20274;-71
2022/12/24 07:11:19;;;;;;;0.10;0.10;;;8.60;99.90;7.10;94742.00;;;;5073910;28;20205;-73
2022/12/24 07:13:48;;;;;;;0.10;0.10;;;8.60;99.90;7.10;94825.00;;;;5073184;28;20263;-73
2022/12/24 07:16:17;;;;;;;0.10;0.10;;;8.60;99.90;7.10;94696.00;;;;5075695;28;20262;-73
2022/12/24 07:18:46;;;;;;;0.10;0.10;;;8.60;99.90;7.20;94563.00;;;;5078862;28;20218;-73
2022/12/24 07:21:14;;;;;;;0.10;0.10;;;8.70;99.90;7.20;94261.00;;;;5080509;28;20204;-73
2022/12/24 07:23:42;;;;;;;0.10;0.10;;;8.70;99.90;7.20;94083.00;;;;5079730;28;20213;-73
2022/12/24 07:26:11;;;;;;;0.10;0.10;;;8.60;99.90;7.20;94097.00;;;;5075157;28;20193;-73
2022/12/24 07:28:39;;;;;;;0.10;0.10;;;8.60;99.90;7.10;94502.00;;;;5078602;28;20221;-73
2022/12/24 07:31:07;;;;;;;0.10;0.10;;;8.60;99.90;7.20;94333.00;;;;5081972;28;20205;-73
2022/12/24 07:33:36;;;;;;;0.10;0.10;;;8.60;99.90;7.20;93874.00;;;;5078174;28;20251;-73
2022/12/24 07:36:08;;;;;;;0.10;0.10;;;8.60;99.90;7.20;93989.00;;;;5081165;28;20247;-73
2022/12/24 07:38:38;;;;;;;0.10;0.10;;;8.60;99.90;7.20;94408.00;;;;5083294;28;20605;-73
2022/12/24 07:41:06;;;;;;;0.10;0.10;;;8.70;99.90;7.20;94736.00;;;;5080357;28;20206;-73
2022/12/24 07:43:34;;;;;;;0.10;0.10;;;8.70;99.90;7.10;94694.00;;;;5067896;28;20222;-73
2022/12/24 07:46:02;;;;;;;0.10;0.10;;;8.70;99.90;7.20;94658.00;;;;5071136;28;20205;-73
2022/12/24 07:48:32;;;;;;;0.10;0.10;;;8.70;99.90;7.10;94712.00;;;;5083640;28;20246;-73
2022/12/24 07:51:01;;;;;;;0.10;0.10;;;8.70;99.90;7.20;94733.00;;;;5075037;28;20287;-73
2022/12/24 07:53:31;;;;;;;0.10;0.10;;;8.70;99.90;7.20;94830.00;;;;5075099;28;20206;-73
2022/12/24 07:55:59;;;;;;;0.10;0.10;;;8.70;99.90;7.20;94918.00;;;;5084034;28;20201;-73
2022/12/24 07:58:27;;;;;;;0.10;0.10;;;8.70;99.90;7.20;94690.00;;;;5073281;28;20193;-73
2022/12/24 08:00:57;;;;;;;0.10;0.10;;;8.70;99.90;7.20;94815.00;;;;5087727;28;20188;-73
2022/12/24 08:03:26;;;;;;;0.08;0.08;;;8.80;99.90;7.30;94699.00;;;;5088759;28;20375;-73
2022/12/24 08:05:54;;;;;;;0.10;0.10;;;8.80;99.90;7.30;94740.00;;;;5077113;28;20280;-73
2022/12/24 08:08:24;;;;;;;0.10;0.10;;;8.80;99.90;7.30;94701.00;;;;5085843;28;20268;-73
2022/12/24 08:10:52;;;;;;;0.00;0.00;;;8.80;99.90;7.40;94499.00;;;;5090173;28;20285;-73
2022/12/24 08:13:20;;;;;;;0.10;0.10;;;8.80;99.90;7.30;94837.00;;;;5067431;28;20251;-73
2022/12/24 08:15:48;;;;;;;0.10;0.10;;;8.80;99.90;7.30;94880.00;;;;5082183;28;20614;-73
2022/12/24 08:18:16;;;;;;;0.10;0.10;;;8.90;99.90;7.30;94914.00;;;;5082436;28;20676;-73
2022/12/24 08:20:44;;;;;;;0.10;0.10;;;8.90;99.90;7.30;94641.00;;;;5082477;28;20750;-73
2022/12/24 08:23:13;;;;;;;0.10;0.10;;;8.80;99.90;7.40;94699.00;;;;5088335;28;20221;-71
2022/12/24 08:25:44;;;;;;;0.10;0.10;;;8.90;99.90;7.20;94692.00;;;;5077255;28;20285;-72
2022/12/24 08:28:14;;;;;;;0.10;0.10;;;8.80;99.90;7.30;94684.00;;;;5083763;28;20204;-73
2022/12/24 08:30:44;;;;;;;0.10;0.10;;;8.80;99.90;7.30;94483.00;;;;5081832;28;20221;-71
2022/12/24 08:33:12;;;;;;;0.10;0.10;;;8.80;99.90;7.30;94618.00;;;;5085442;28;20970;-73
2022/12/24 08:35:40;;;;;;;0.10;0.10;;;8.80;99.90;7.30;94663.00;;;;5085820;28;20197;-73
2022/12/24 08:38:08;;;;;;;0.10;0.10;;;8.80;99.90;7.30;94654.00;;;;5080735;28;20205;-73
2022/12/24 08:40:36;;;;;;;0.10;0.10;;;8.80;99.90;7.40;94679.00;;;;5076512;28;20213;-73
2022/12/24 08:43:06;;;;;;;0.00;0.00;;;8.90;99.90;7.40;94644.00;;;;5074962;28;20221;-73
2022/12/24 08:45:34;;;;;;;0.10;0.10;;;8.90;99.90;7.30;94668.00;;;;5073581;28;20588;-73
2022/12/24 08:48:09;;;;;;;0.10;0.10;;;8.90;99.90;7.40;94624.00;;;;5084318;28;20560;-73
2022/12/24 08:50:40;;;;;;;0.10;0.10;;;8.90;99.90;7.40;94574.00;;;;5085508;28;20316;-73
2022/12/24 08:53:09;;;;;;;0.10;0.10;;;8.90;99.90;7.40;94917.00;;;;5077443;28;20205;-73
2022/12/24 08:55:38;;;;;;;0.10;0.10;;;8.90;99.90;7.40;94695.00;;;;5085649;28;20193;-73
2022/12/24 08:58:07;;;;;;;0.10;0.10;;;8.90;99.90;7.40;94677.00;;;;5084724;28;20202;-73
2022/12/24 09:00:35;;;;;;;0.10;0.10;;;8.90;99.90;7.40;94625.00;;;;5085681;28;20213;-73
2022/12/24 09:03:04;;;;;;;0.00;0.00;;;8.90;99.90;7.50;94645.00;;;;5085127;28;20334;-73
2022/12/24 09:05:32;;;;;;;0.10;0.10;;;8.90;99.90;7.50;94740.00;;;;5085862;28;20197;-73
2022/12/24 09:08:00;;;;;;;0.10;0.10;;;9.00;99.90;7.50;94810.00;;;;5076535;28;20258;-73
2022/12/24 09:10:28;;;;;;;0.10;0.10;;;9.10;99.90;7.50;94840.00;;;;5084669;28;20217;-73
2022/12/24 09:12:56;;;;;;;0.10;0.10;;;9.10;99.90;7.50;94780.00;;;;5071324;28;20210;-73
2022/12/24 09:15:25;;;;;;;0.10;0.10;;;9.00;99.90;7.50;94778.00;;;;5070726;28;20189;-73
2022/12/24 09:17:53;;;;;;;0.10;0.10;;;9.00;99.90;7.50;94800.00;;;;5085025;28;20196;-73
2022/12/24 09:20:21;;;;;;;0.10;0.10;;;9.00;99.90;7.50;94803.00;;;;5077544;28;20255;-73
2022/12/24 09:22:49;;;;;;;0.10;0.10;;;9.00;99.90;7.40;94455.00;;;;5088273;28;20189;-73
2022/12/24 09:25:17;;;;;;;0.10;0.10;;;8.90;99.90;7.30;94680.00;;;;5078330;28;20195;-73
2022/12/24 09:27:45;;;;;;;0.10;0.10;;;8.80;99.90;7.30;94908.00;;;;5087264;28;20193;-73
2022/12/24 09:30:15;;;;;;;0.10;0.10;;;8.80;99.90;7.30;94728.00;;;;5082521;28;20692;-73
2022/12/24 09:32:44;;;;;;;0.10;0.10;;;8.80;99.90;7.30;94768.00;;;;5082605;28;20201;-73
2022/12/24 09:35:12;;;;;;;0.10;0.10;;;8.80;99.90;7.20;94678.00;;;;5082486;28;20593;-73
2022/12/24 09:37:40;;;;;;;0.10;0.10;;;8.70;99.90;7.20;94755.00;;;;5078340;28;20201;-73
2022/12/24 09:40:25;;;;;;;0.10;0.10;;;8.70;99.90;7.20;94764.00;;;;5077904;28;20221;-73
2022/12/24 09:42:54;;;;;;;0.10;0.10;;;8.70;99.90;7.30;94847.00;;;;5076979;28;20212;-73
2022/12/24 09:45:30;;;;;;;0.10;0.10;;;8.80;99.90;7.30;94697.00;;;;5073425;28;20206;-73
2022/12/24 09:48:09;;;;;;;0.00;0.00;;;8.80;99.90;7.30;94750.00;;;;5082980;28;20197;-73
2022/12/24 09:50:45;;;;;;;0.10;0.10;;;8.80;99.90;7.30;94730.00;;;;5078854;28;20214;-73
2022/12/24 09:53:24;;;;;;;0.10;0.10;;;8.80;99.90;7.30;94819.00;;;;5080707;28;20247;-73
2022/12/24 09:55:57;;;;;;;0.10;0.10;;;8.80;99.90;7.40;94698.00;;;;5085036;28;20201;-73
2022/12/24 09:58:31;;;;;;;0.10;0.10;;;8.90;99.90;7.40;94815.00;;;;5078207;28;20254;-73
2022/12/24 10:00:59;;;;;;;0.10;0.10;;;8.90;99.90;7.50;94748.00;;;;5082341;28;20200;-73
2022/12/24 10:03:29;;;;;;;0.10;0.10;;;8.90;99.90;7.50;94772.00;;;;5085027;28;20248;-73
2022/12/24 10:06:08;;;;;;;0.00;0.00;;;9.00;99.90;7.50;94679.00;;;;5084214;28;20189;-73
2022/12/24 10:08:58;;;;;;;0.10;0.10;;;9.00;99.90;7.60;94810.00;;;;5081275;28;20265;-73
2022/12/24 10:11:41;;;;;;;0.10;0.10;;;9.10;99.90;7.70;94724.00;;;;5067953;28;20283;-71
2022/12/24 10:14:34;;;;;;;0.08;0.08;;;9.20;99.90;7.70;94766.00;;;;5080789;28;20229;-71
2022/12/24 10:17:29;;;;;;;0.10;0.10;;;9.20;99.90;7.80;94836.00;;;;5082641;28;20604;-72
2022/12/24 10:20:24;;;;;;;0.05;0.05;;;9.30;99.90;7.80;94904.00;;;;5066832;28;20278;-71
2022/12/24 10:23:01;;;;;;;0.10;0.10;;;9.30;99.90;7.90;94850.00;;;;5076096;28;20612;-71
2022/12/24 10:25:37;;;;;;;0.10;0.10;;;9.40;99.90;8.00;94863.00;;;;5079057;28;20221;-72
2022/12/24 10:28:16;;;;;;;0.00;0.00;;;9.50;99.90;8.00;94704.00;;;;5084909;28;20201;-74
2022/12/24 10:30:48;;;;;;;0.00;0.00;;;9.50;99.90;8.10;94800.00;;;;5073599;28;20216;-73
2022/12/24 10:33:29;;;;;;;0.00;0.00;;;9.60;99.90;8.20;94320.00;;;;5084180;28;20204;-73
2022/12/24 10:35:58;;;;;;;0.10;0.10;;;9.60;99.90;8.10;94452.00;;;;5082077;28;20928;-73
2022/12/24 10:38:27;;;;;;;0.10;0.10;;;9.60;99.90;8.10;94813.00;;;;5085357;28;20598;-73
2022/12/24 10:41:00;;;;;;;0.10;0.10;;;9.60;99.90;8.10;94866.00;;;;5082635;28;20684;-73
2022/12/24 10:43:30;;;;;;;0.08;0.08;;;9.60;99.90;8.10;94829.00;;;;5071802;28;20255;-73
2022/12/24 10:46:04;;;;;;;0.10;0.10;;;9.60;99.90;8.20;94632.00;;;;5081407;28;20671;-73
2022/12/24 10:48:41;;;;;;;0.10;0.10;;;9.60;99.90;8.20;94576.00;;;;5075516;28;20394;-72
2022/12/24 10:51:30;;;;;;;0.10;0.10;;;9.60;99.90;8.10;94915.00;;;;5078083;28;20315;-73
2022/12/24 10:54:07;;;;;;;0.10;0.10;;;9.60;99.90;8.20;94795.00;;;;5085711;28;20193;-73
2022/12/24 10:56:42;;;;;;;0.10;0.10;;;9.60;99.90;8.20;94877.00;;;;5079319;28;20610;-73
2022/12/24 10:59:25;;;;;;;0.00;0.00;;;9.70;99.90;8.20;94900.00;;;;5091066;28;20216;-73
2022/12/24 11:01:55;;;;;;;0.10;0.10;;;9.70;99.90;8.20;95089.00;;;;5083726;28;20194;-73
2022/12/24 11:04:27;;;;;;;0.10;0.10;;;9.70;99.90;8.20;94918.00;;;;5091165;28;20230;-73
2022/12/24 11:06:59;;;;;;;0.10;0.10;;;9.70;99.90;8.20;94995.00;;;;5085166;28;20193;-73
2022/12/24 11:09:32;;;;;;;0.10;0.10;;;9.70;99.90;8.20;94961.00;;;;5088765;28;20212;-73
2022/12/24 11:12:04;;;;;;;0.00;0.00;;;9.70;99.90;8.30;95184.00;;;;5086782;28;20228;-73
2022/12/24 11:14:38;;;;;;;0.10;0.10;;;9.70;99.90;8.30;94921.00;;;;5080237;28;20189;-73
2022/12/24 11:17:07;;;;;;;0.05;0.05;;;9.70;99.90;8.20;94890.00;;;;5083866;28;20243;-73
2022/12/24 11:19:38;;;;;;;0.10;0.10;;;9.70;99.90;8.30;94889.00;;;;5078063;28;20223;-73
2022/12/24 11:22:18;;;;;;;0.00;0.00;;;9.70;99.90;8.30;95035.00;;;;5081854;28;20194;-73
2022/12/24 11:24:58;;;;;;;0.10;0.10;;;9.70;99.90;8.20;95050.00;;;;5082961;28;20266;-73
2022/12/24 11:27:41;;;;;;;0.10;0.10;;;9.70;99.90;8.20;94963.00;;;;5076195;28;20200;-73
2022/12/24 11:30:26;;;;;;;0.10;0.10;;;9.70;99.90;8.20;95108.00;;;;5081809;28;20235;-73
2022/12/24 11:33:19;;;;;;;0.00;0.00;;;9.70;99.90;8.20;95145.00;;;;5081494;28;20259;-73
2022/12/24 11:35:54;;;;;;;0.10;0.10;;;9.70;99.90;8.20;94996.00;;;;5075978;28;20201;-73